sensor_id;sensor_type;location;lat;lon;timestamp;P1;durP1;ratioP1;P2;durP2;ratioP2
39996;SDS011;25688;52.338;21.072;2024-02-28T00:01:08;115.40;;;61.40;;
39996;SDS011;25688;52.338;21.072;2024-02-28T00:03:34;118.30;;;61.55;;
39996;SDS011;25688;52.338;21.072;2024-02-28T00:06:00;117.43;;;61.65;;
39996;SDS011;25688;52.338;21.072;2024-02-28T00:08:25;108.50;;;58.20;;
39996;SDS011;25688;52.338;21.072;2024-02-28T00:10:51;119.38;;;61.42;;
39996;SDS011;25688;52.338;21.072;2024-02-28T00:13:17;129.40;;;66.00;;
39996;SDS011;25688;52.338;21.072;2024-02-28T00:15:45;134.20;;;66.03;;
39996;SDS011;25688;52.338;21.072;2024-02-28T00:18:11;119.75;;;63.78;;
39996;SDS011;25688;52.338;21.072;2024-02-28T00:20:37;125.03;;;63.90;;
39996;SDS011;25688;52.338;21.072;2024-02-28T00:23:02;130.85;;;66.18;;
39996;SDS011;25688;52.338;21.072;2024-02-28T00:25:28;134.00;;;67.32;;
39996;SDS011;25688;52.338;21.072;2024-02-28T00:27:54;130.45;;;69.32;;
39996;SDS011;25688;52.338;21.072;2024-02-28T00:30:20;138.00;;;70.20;;
39996;SDS011;25688;52.338;21.072;2024-02-28T00:32:46;133.18;;;68.95;;
39996;SDS011;25688;52.338;21.072;2024-02-28T00:35:11;125.45;;;67.78;;
39996;SDS011;25688;52.338;21.072;2024-02-28T00:37:38;122.45;;;63.20;;
39996;SDS011;25688;52.338;21.072;2024-02-28T00:40:04;121.35;;;61.85;;
39996;SDS011;25688;52.338;21.072;2024-02-28T00:42:30;120.75;;;63.47;;
39996;SDS011;25688;52.338;21.072;2024-02-28T00:44:56;123.60;;;62.35;;
39996;SDS011;25688;52.338;21.072;2024-02-28T00:47:22;122.57;;;65.10;;
39996;SDS011;25688;52.338;21.072;2024-02-28T00:49:48;117.53;;;64.82;;
39996;SDS011;25688;52.338;21.072;2024-02-28T00:52:14;138.05;;;71.50;;
39996;SDS011;25688;52.338;21.072;2024-02-28T00:54:40;140.90;;;71.65;;
39996;SDS011;25688;52.338;21.072;2024-02-28T00:57:10;144.73;;;72.32;;
39996;SDS011;25688;52.338;21.072;2024-02-28T00:59:35;131.98;;;69.85;;
39996;SDS011;25688;52.338;21.072;2024-02-28T01:02:01;133.15;;;71.05;;
39996;SDS011;25688;52.338;21.072;2024-02-28T01:04:28;133.45;;;71.75;;
39996;SDS011;25688;52.338;21.072;2024-02-28T01:06:54;123.55;;;67.05;;
39996;SDS011;25688;52.338;21.072;2024-02-28T01:09:21;128.00;;;71.10;;
39996;SDS011;25688;52.338;21.072;2024-02-28T01:11:48;128.75;;;68.57;;
39996;SDS011;25688;52.338;21.072;2024-02-28T01:17:28;125.13;;;64.15;;
39996;SDS011;25688;52.338;21.072;2024-02-28T01:20:15;117.85;;;64.70;;
39996;SDS011;25688;52.338;21.072;2024-02-28T01:22:41;118.20;;;63.25;;
39996;SDS011;25688;52.338;21.072;2024-02-28T01:25:11;113.82;;;62.42;;
39996;SDS011;25688;52.338;21.072;2024-02-28T01:28:45;112.38;;;61.15;;
39996;SDS011;25688;52.338;21.072;2024-02-28T01:34:52;113.43;;;60.97;;
39996;SDS011;25688;52.338;21.072;2024-02-28T01:38:15;106.38;;;59.08;;
39996;SDS011;25688;52.338;21.072;2024-02-28T01:41:29;121.80;;;62.72;;
39996;SDS011;25688;52.338;21.072;2024-02-28T01:44:19;116.47;;;60.85;;
39996;SDS011;25688;52.338;21.072;2024-02-28T01:47:27;115.68;;;60.58;;
39996;SDS011;25688;52.338;21.072;2024-02-28T01:50:22;123.75;;;63.03;;
39996;SDS011;25688;52.338;21.072;2024-02-28T01:52:49;115.90;;;64.32;;
39996;SDS011;25688;52.338;21.072;2024-02-28T01:55:18;113.78;;;61.88;;
39996;SDS011;25688;52.338;21.072;2024-02-28T01:57:43;115.93;;;61.15;;
39996;SDS011;25688;52.338;21.072;2024-02-28T02:00:10;117.72;;;61.35;;
39996;SDS011;25688;52.338;21.072;2024-02-28T02:02:37;112.68;;;62.42;;
39996;SDS011;25688;52.338;21.072;2024-02-28T02:05:03;114.60;;;62.03;;
39996;SDS011;25688;52.338;21.072;2024-02-28T02:07:29;118.45;;;61.40;;
39996;SDS011;25688;52.338;21.072;2024-02-28T02:09:56;119.90;;;63.53;;
39996;SDS011;25688;52.338;21.072;2024-02-28T02:12:22;115.07;;;61.38;;
39996;SDS011;25688;52.338;21.072;2024-02-28T02:14:48;116.28;;;60.10;;
39996;SDS011;25688;52.338;21.072;2024-02-28T02:17:14;123.13;;;63.78;;
39996;SDS011;25688;52.338;21.072;2024-02-28T02:19:40;108.05;;;59.08;;
39996;SDS011;25688;52.338;21.072;2024-02-28T02:22:08;115.78;;;62.28;;
39996;SDS011;25688;52.338;21.072;2024-02-28T02:24:38;121.38;;;65.15;;
39996;SDS011;25688;52.338;21.072;2024-02-28T02:27:06;123.68;;;63.92;;
39996;SDS011;25688;52.338;21.072;2024-02-28T02:29:32;124.57;;;65.63;;
39996;SDS011;25688;52.338;21.072;2024-02-28T02:31:58;127.07;;;65.38;;
39996;SDS011;25688;52.338;21.072;2024-02-28T02:34:25;120.82;;;64.13;;
39996;SDS011;25688;52.338;21.072;2024-02-28T02:36:50;115.53;;;62.60;;
39996;SDS011;25688;52.338;21.072;2024-02-28T02:39:16;112.88;;;63.22;;
39996;SDS011;25688;52.338;21.072;2024-02-28T02:41:42;121.97;;;65.03;;
39996;SDS011;25688;52.338;21.072;2024-02-28T02:44:08;120.10;;;63.63;;
39996;SDS011;25688;52.338;21.072;2024-02-28T02:46:39;126.70;;;65.53;;
39996;SDS011;25688;52.338;21.072;2024-02-28T02:49:05;127.07;;;67.88;;
39996;SDS011;25688;52.338;21.072;2024-02-28T02:51:35;125.75;;;66.70;;
39996;SDS011;25688;52.338;21.072;2024-02-28T02:54:02;126.65;;;66.82;;
39996;SDS011;25688;52.338;21.072;2024-02-28T02:56:28;116.45;;;64.05;;
39996;SDS011;25688;52.338;21.072;2024-02-28T02:58:53;120.40;;;65.72;;
39996;SDS011;25688;52.338;21.072;2024-02-28T03:01:22;125.03;;;66.00;;
39996;SDS011;25688;52.338;21.072;2024-02-28T03:06:17;122.07;;;64.65;;
39996;SDS011;25688;52.338;21.072;2024-02-28T03:08:43;137.23;;;71.07;;
39996;SDS011;25688;52.338;21.072;2024-02-28T03:11:09;129.95;;;70.68;;
39996;SDS011;25688;52.338;21.072;2024-02-28T03:13:36;141.60;;;74.38;;
39996;SDS011;25688;52.338;21.072;2024-02-28T03:16:05;146.20;;;74.85;;
39996;SDS011;25688;52.338;21.072;2024-02-28T03:18:31;145.73;;;74.68;;
39996;SDS011;25688;52.338;21.072;2024-02-28T03:20:57;160.35;;;78.30;;
39996;SDS011;25688;52.338;21.072;2024-02-28T03:23:23;159.77;;;76.72;;
39996;SDS011;25688;52.338;21.072;2024-02-28T03:25:49;152.10;;;77.65;;
39996;SDS011;25688;52.338;21.072;2024-02-28T03:28:15;153.32;;;78.50;;
39996;SDS011;25688;52.338;21.072;2024-02-28T03:30:42;156.48;;;78.13;;
39996;SDS011;25688;52.338;21.072;2024-02-28T03:33:08;148.48;;;76.43;;
39996;SDS011;25688;52.338;21.072;2024-02-28T03:35:34;152.63;;;74.55;;
39996;SDS011;25688;52.338;21.072;2024-02-28T03:38:00;139.48;;;72.60;;
39996;SDS011;25688;52.338;21.072;2024-02-28T03:40:26;149.65;;;76.38;;
39996;SDS011;25688;52.338;21.072;2024-02-28T03:42:51;141.88;;;73.18;;
39996;SDS011;25688;52.338;21.072;2024-02-28T03:45:17;137.15;;;70.90;;
39996;SDS011;25688;52.338;21.072;2024-02-28T03:47:44;135.85;;;70.57;;
39996;SDS011;25688;52.338;21.072;2024-02-28T03:50:10;135.35;;;71.90;;
39996;SDS011;25688;52.338;21.072;2024-02-28T03:52:36;147.40;;;73.95;;
39996;SDS011;25688;52.338;21.072;2024-02-28T03:55:02;140.70;;;73.28;;
39996;SDS011;25688;52.338;21.072;2024-02-28T03:57:29;155.38;;;75.43;;
39996;SDS011;25688;52.338;21.072;2024-02-28T03:59:55;143.38;;;74.05;;
39996;SDS011;25688;52.338;21.072;2024-02-28T04:02:21;157.98;;;76.07;;
39996;SDS011;25688;52.338;21.072;2024-02-28T04:04:47;133.80;;;69.45;;
39996;SDS011;25688;52.338;21.072;2024-02-28T04:07:12;150.15;;;73.88;;
39996;SDS011;25688;52.338;21.072;2024-02-28T04:09:38;133.25;;;71.82;;
39996;SDS011;25688;52.338;21.072;2024-02-28T04:12:04;136.20;;;70.70;;
39996;SDS011;25688;52.338;21.072;2024-02-28T04:14:30;221.73;;;76.72;;
39996;SDS011;25688;52.338;21.072;2024-02-28T04:16:56;401.17;;;85.80;;
39996;SDS011;25688;52.338;21.072;2024-02-28T04:19:21;140.15;;;69.57;;
39996;SDS011;25688;52.338;21.072;2024-02-28T04:21:47;129.55;;;69.10;;
39996;SDS011;25688;52.338;21.072;2024-02-28T04:24:13;127.90;;;64.38;;
39996;SDS011;25688;52.338;21.072;2024-02-28T04:26:38;509.67;;;88.13;;
39996;SDS011;25688;52.338;21.072;2024-02-28T04:29:04;417.60;;;81.57;;
39996;SDS011;25688;52.338;21.072;2024-02-28T04:31:32;435.23;;;79.78;;
39996;SDS011;25688;52.338;21.072;2024-02-28T04:33:58;484.38;;;91.78;;
39996;SDS011;25688;52.338;21.072;2024-02-28T04:36:24;372.20;;;77.25;;
39996;SDS011;25688;52.338;21.072;2024-02-28T04:38:52;129.65;;;61.15;;
39996;SDS011;25688;52.338;21.072;2024-02-28T04:41:18;140.52;;;64.05;;
39996;SDS011;25688;52.338;21.072;2024-02-28T04:43:44;118.85;;;64.65;;
39996;SDS011;25688;52.338;21.072;2024-02-28T04:46:09;139.05;;;65.28;;
39996;SDS011;25688;52.338;21.072;2024-02-28T04:48:35;116.85;;;62.47;;
39996;SDS011;25688;52.338;21.072;2024-02-28T04:51:01;271.15;;;75.72;;
39996;SDS011;25688;52.338;21.072;2024-02-28T04:53:27;156.13;;;70.32;;
39996;SDS011;25688;52.338;21.072;2024-02-28T04:55:53;220.48;;;74.35;;
39996;SDS011;25688;52.338;21.072;2024-02-28T04:58:19;159.55;;;66.00;;
39996;SDS011;25688;52.338;21.072;2024-02-28T05:00:44;159.70;;;67.07;;
39996;SDS011;25688;52.338;21.072;2024-02-28T05:03:10;135.50;;;64.93;;
39996;SDS011;25688;52.338;21.072;2024-02-28T05:05:36;118.00;;;62.67;;
39996;SDS011;25688;52.338;21.072;2024-02-28T05:08:02;116.53;;;62.30;;
39996;SDS011;25688;52.338;21.072;2024-02-28T05:10:31;120.75;;;62.83;;
39996;SDS011;25688;52.338;21.072;2024-02-28T05:12:56;131.68;;;64.28;;
39996;SDS011;25688;52.338;21.072;2024-02-28T05:15:22;119.72;;;61.85;;
39996;SDS011;25688;52.338;21.072;2024-02-28T05:17:50;127.40;;;66.00;;
39996;SDS011;25688;52.338;21.072;2024-02-28T05:20:17;175.55;;;73.65;;
39996;SDS011;25688;52.338;21.072;2024-02-28T05:22:43;266.73;;;84.15;;
39996;SDS011;25688;52.338;21.072;2024-02-28T05:25:08;238.00;;;78.50;;
39996;SDS011;25688;52.338;21.072;2024-02-28T05:27:34;258.95;;;81.82;;
39996;SDS011;25688;52.338;21.072;2024-02-28T05:30:00;325.13;;;85.82;;
39996;SDS011;25688;52.338;21.072;2024-02-28T05:32:26;140.00;;;69.03;;
39996;SDS011;25688;52.338;21.072;2024-02-28T05:34:52;135.60;;;69.30;;
39996;SDS011;25688;52.338;21.072;2024-02-28T05:37:18;130.27;;;68.43;;
39996;SDS011;25688;52.338;21.072;2024-02-28T05:39:43;145.40;;;70.57;;
39996;SDS011;25688;52.338;21.072;2024-02-28T05:42:09;146.13;;;71.80;;
39996;SDS011;25688;52.338;21.072;2024-02-28T05:44:35;131.85;;;67.88;;
39996;SDS011;25688;52.338;21.072;2024-02-28T05:47:01;129.55;;;67.70;;
39996;SDS011;25688;52.338;21.072;2024-02-28T05:49:27;125.30;;;66.03;;
39996;SDS011;25688;52.338;21.072;2024-02-28T05:51:52;130.05;;;69.63;;
39996;SDS011;25688;52.338;21.072;2024-02-28T05:54:18;148.02;;;69.93;;
39996;SDS011;25688;52.338;21.072;2024-02-28T05:56:44;132.25;;;69.18;;
39996;SDS011;25688;52.338;21.072;2024-02-28T05:59:10;115.80;;;62.85;;
39996;SDS011;25688;52.338;21.072;2024-02-28T06:01:36;115.70;;;61.40;;
39996;SDS011;25688;52.338;21.072;2024-02-28T06:04:03;124.63;;;65.65;;
39996;SDS011;25688;52.338;21.072;2024-02-28T06:06:29;113.15;;;61.28;;
39996;SDS011;25688;52.338;21.072;2024-02-28T06:08:54;107.65;;;58.78;;
39996;SDS011;25688;52.338;21.072;2024-02-28T06:11:21;117.78;;;64.50;;
39996;SDS011;25688;52.338;21.072;2024-02-28T06:13:49;105.97;;;59.67;;
39996;SDS011;25688;52.338;21.072;2024-02-28T06:16:21;109.82;;;63.08;;
39996;SDS011;25688;52.338;21.072;2024-02-28T06:18:46;151.45;;;72.93;;
39996;SDS011;25688;52.338;21.072;2024-02-28T06:21:13;141.25;;;70.35;;
39996;SDS011;25688;52.338;21.072;2024-02-28T06:23:39;131.60;;;66.43;;
39996;SDS011;25688;52.338;21.072;2024-02-28T06:26:04;130.75;;;68.32;;
39996;SDS011;25688;52.338;21.072;2024-02-28T06:28:30;118.53;;;65.03;;
39996;SDS011;25688;52.338;21.072;2024-02-28T06:30:57;116.45;;;65.82;;
39996;SDS011;25688;52.338;21.072;2024-02-28T06:33:26;121.55;;;65.72;;
39996;SDS011;25688;52.338;21.072;2024-02-28T06:35:51;123.20;;;67.65;;
39996;SDS011;25688;52.338;21.072;2024-02-28T06:38:17;120.88;;;67.38;;
39996;SDS011;25688;52.338;21.072;2024-02-28T06:40:43;121.15;;;66.35;;
39996;SDS011;25688;52.338;21.072;2024-02-28T06:43:08;145.60;;;72.63;;
39996;SDS011;25688;52.338;21.072;2024-02-28T06:45:34;142.43;;;72.38;;
39996;SDS011;25688;52.338;21.072;2024-02-28T06:48:01;156.40;;;75.60;;
39996;SDS011;25688;52.338;21.072;2024-02-28T06:50:28;154.73;;;74.50;;
39996;SDS011;25688;52.338;21.072;2024-02-28T06:52:54;155.65;;;78.60;;
39996;SDS011;25688;52.338;21.072;2024-02-28T06:55:19;150.80;;;75.97;;
39996;SDS011;25688;52.338;21.072;2024-02-28T06:57:46;171.68;;;81.97;;
39996;SDS011;25688;52.338;21.072;2024-02-28T07:00:11;168.70;;;83.30;;
39996;SDS011;25688;52.338;21.072;2024-02-28T07:02:39;181.68;;;86.15;;
39996;SDS011;25688;52.338;21.072;2024-02-28T07:05:05;177.25;;;84.93;;
39996;SDS011;25688;52.338;21.072;2024-02-28T07:07:32;171.73;;;83.50;;
39996;SDS011;25688;52.338;21.072;2024-02-28T07:09:58;176.35;;;85.10;;
39996;SDS011;25688;52.338;21.072;2024-02-28T07:12:24;177.38;;;83.13;;
39996;SDS011;25688;52.338;21.072;2024-02-28T07:14:50;167.38;;;80.85;;
39996;SDS011;25688;52.338;21.072;2024-02-28T07:17:16;157.45;;;82.22;;
39996;SDS011;25688;52.338;21.072;2024-02-28T07:19:42;172.20;;;82.97;;
39996;SDS011;25688;52.338;21.072;2024-02-28T07:22:08;156.75;;;82.13;;
39996;SDS011;25688;52.338;21.072;2024-02-28T07:24:33;168.23;;;82.43;;
39996;SDS011;25688;52.338;21.072;2024-02-28T07:26:59;158.52;;;80.85;;
39996;SDS011;25688;52.338;21.072;2024-02-28T07:29:25;159.82;;;81.97;;
39996;SDS011;25688;52.338;21.072;2024-02-28T07:31:54;164.57;;;81.95;;
39996;SDS011;25688;52.338;21.072;2024-02-28T07:34:20;162.40;;;81.82;;
39996;SDS011;25688;52.338;21.072;2024-02-28T07:36:45;167.27;;;83.93;;
39996;SDS011;25688;52.338;21.072;2024-02-28T07:39:11;164.18;;;82.65;;
39996;SDS011;25688;52.338;21.072;2024-02-28T07:41:40;161.95;;;82.03;;
39996;SDS011;25688;52.338;21.072;2024-02-28T07:44:06;161.65;;;82.90;;
39996;SDS011;25688;52.338;21.072;2024-02-28T07:46:33;154.15;;;80.65;;
39996;SDS011;25688;52.338;21.072;2024-02-28T07:48:59;160.57;;;82.57;;
39996;SDS011;25688;52.338;21.072;2024-02-28T07:51:26;153.68;;;77.50;;
39996;SDS011;25688;52.338;21.072;2024-02-28T07:53:54;155.70;;;80.75;;
39996;SDS011;25688;52.338;21.072;2024-02-28T07:56:20;151.25;;;79.53;;
39996;SDS011;25688;52.338;21.072;2024-02-28T07:58:46;150.27;;;78.97;;
39996;SDS011;25688;52.338;21.072;2024-02-28T08:01:12;141.20;;;77.70;;
39996;SDS011;25688;52.338;21.072;2024-02-28T08:03:39;141.50;;;78.22;;
39996;SDS011;25688;52.338;21.072;2024-02-28T08:06:06;137.48;;;75.35;;
39996;SDS011;25688;52.338;21.072;2024-02-28T08:08:33;136.43;;;74.38;;
39996;SDS011;25688;52.338;21.072;2024-02-28T08:11:00;131.90;;;73.32;;
39996;SDS011;25688;52.338;21.072;2024-02-28T08:13:25;128.00;;;70.90;;
39996;SDS011;25688;52.338;21.072;2024-02-28T08:15:53;127.68;;;71.97;;
39996;SDS011;25688;52.338;21.072;2024-02-28T08:18:22;119.13;;;67.07;;
39996;SDS011;25688;52.338;21.072;2024-02-28T08:20:48;112.55;;;65.95;;
39996;SDS011;25688;52.338;21.072;2024-02-28T08:23:14;119.13;;;65.47;;
39996;SDS011;25688;52.338;21.072;2024-02-28T08:25:43;109.82;;;62.35;;
39996;SDS011;25688;52.338;21.072;2024-02-28T08:28:09;103.10;;;62.47;;
39996;SDS011;25688;52.338;21.072;2024-02-28T08:30:35;103.78;;;61.80;;
39996;SDS011;25688;52.338;21.072;2024-02-28T08:33:00;112.35;;;62.58;;
39996;SDS011;25688;52.338;21.072;2024-02-28T08:35:26;107.82;;;61.63;;
39996;SDS011;25688;52.338;21.072;2024-02-28T08:37:54;107.05;;;60.17;;
39996;SDS011;25688;52.338;21.072;2024-02-28T08:40:20;102.32;;;61.85;;
39996;SDS011;25688;52.338;21.072;2024-02-28T08:42:46;106.50;;;61.58;;
39996;SDS011;25688;52.338;21.072;2024-02-28T08:45:12;118.90;;;64.13;;
39996;SDS011;25688;52.338;21.072;2024-02-28T08:47:37;99.95;;;58.35;;
39996;SDS011;25688;52.338;21.072;2024-02-28T08:50:03;96.15;;;56.67;;
39996;SDS011;25688;52.338;21.072;2024-02-28T08:52:29;100.90;;;58.25;;
39996;SDS011;25688;52.338;21.072;2024-02-28T08:54:56;96.03;;;58.08;;
39996;SDS011;25688;52.338;21.072;2024-02-28T08:57:25;93.40;;;55.70;;
39996;SDS011;25688;52.338;21.072;2024-02-28T08:59:51;92.80;;;55.80;;
39996;SDS011;25688;52.338;21.072;2024-02-28T09:02:19;91.72;;;57.03;;
39996;SDS011;25688;52.338;21.072;2024-02-28T09:04:46;98.22;;;57.25;;
39996;SDS011;25688;52.338;21.072;2024-02-28T09:07:18;92.68;;;55.10;;
39996;SDS011;25688;52.338;21.072;2024-02-28T09:10:03;91.32;;;54.55;;
39996;SDS011;25688;52.338;21.072;2024-02-28T09:12:31;99.85;;;56.85;;
39996;SDS011;25688;52.338;21.072;2024-02-28T09:15:02;93.97;;;57.08;;
39996;SDS011;25688;52.338;21.072;2024-02-28T09:17:31;95.15;;;54.60;;
39996;SDS011;25688;52.338;21.072;2024-02-28T09:19:56;94.20;;;54.75;;
39996;SDS011;25688;52.338;21.072;2024-02-28T09:22:22;86.43;;;52.67;;
39996;SDS011;25688;52.338;21.072;2024-02-28T09:24:50;90.78;;;54.08;;
39996;SDS011;25688;52.338;21.072;2024-02-28T09:27:16;83.63;;;50.97;;
39996;SDS011;25688;52.338;21.072;2024-02-28T09:29:43;86.88;;;49.33;;
39996;SDS011;25688;52.338;21.072;2024-02-28T09:32:09;88.05;;;51.40;;
39996;SDS011;25688;52.338;21.072;2024-02-28T09:34:36;84.05;;;49.65;;
39996;SDS011;25688;52.338;21.072;2024-02-28T09:37:02;82.50;;;48.63;;
39996;SDS011;25688;52.338;21.072;2024-02-28T09:39:29;78.00;;;47.58;;
39996;SDS011;25688;52.338;21.072;2024-02-28T09:41:54;82.00;;;45.83;;
39996;SDS011;25688;52.338;21.072;2024-02-28T09:44:21;80.68;;;47.10;;
39996;SDS011;25688;52.338;21.072;2024-02-28T09:46:49;72.40;;;45.28;;
39996;SDS011;25688;52.338;21.072;2024-02-28T09:49:16;74.60;;;45.60;;
39996;SDS011;25688;52.338;21.072;2024-02-28T09:51:43;79.97;;;44.63;;
39996;SDS011;25688;52.338;21.072;2024-02-28T09:54:12;73.05;;;45.42;;
39996;SDS011;25688;52.338;21.072;2024-02-28T09:56:37;73.30;;;43.55;;
39996;SDS011;25688;52.338;21.072;2024-02-28T09:59:03;78.45;;;46.65;;
39996;SDS011;25688;52.338;21.072;2024-02-28T10:01:30;73.93;;;44.80;;
39996;SDS011;25688;52.338;21.072;2024-02-28T10:03:59;70.60;;;42.65;;
39996;SDS011;25688;52.338;21.072;2024-02-28T10:06:25;76.07;;;45.10;;
39996;SDS011;25688;52.338;21.072;2024-02-28T10:08:51;71.13;;;44.42;;
39996;SDS011;25688;52.338;21.072;2024-02-28T10:11:21;74.40;;;43.30;;
39996;SDS011;25688;52.338;21.072;2024-02-28T10:13:48;74.95;;;42.97;;
39996;SDS011;25688;52.338;21.072;2024-02-28T10:16:14;70.07;;;43.75;;
39996;SDS011;25688;52.338;21.072;2024-02-28T10:18:44;76.97;;;44.75;;
39996;SDS011;25688;52.338;21.072;2024-02-28T10:21:10;69.10;;;42.33;;
39996;SDS011;25688;52.338;21.072;2024-02-28T10:23:43;69.40;;;42.45;;
39996;SDS011;25688;52.338;21.072;2024-02-28T10:26:10;70.55;;;43.58;;
39996;SDS011;25688;52.338;21.072;2024-02-28T10:28:37;76.22;;;43.80;;
39996;SDS011;25688;52.338;21.072;2024-02-28T10:31:05;74.38;;;43.75;;
39996;SDS011;25688;52.338;21.072;2024-02-28T10:33:35;73.20;;;44.53;;
39996;SDS011;25688;52.338;21.072;2024-02-28T10:36:04;78.20;;;47.00;;
39996;SDS011;25688;52.338;21.072;2024-02-28T10:38:30;78.63;;;45.92;;
39996;SDS011;25688;52.338;21.072;2024-02-28T10:41:01;71.55;;;44.42;;
39996;SDS011;25688;52.338;21.072;2024-02-28T10:43:30;75.22;;;44.22;;
39996;SDS011;25688;52.338;21.072;2024-02-28T10:46:00;74.57;;;42.45;;
39996;SDS011;25688;52.338;21.072;2024-02-28T10:48:26;75.63;;;42.53;;
39996;SDS011;25688;52.338;21.072;2024-02-28T10:50:52;74.35;;;42.50;;
39996;SDS011;25688;52.338;21.072;2024-02-28T10:53:22;76.20;;;44.15;;
39996;SDS011;25688;52.338;21.072;2024-02-28T10:56:02;74.65;;;43.85;;
39996;SDS011;25688;52.338;21.072;2024-02-28T10:58:35;73.15;;;42.50;;
39996;SDS011;25688;52.338;21.072;2024-02-28T11:01:05;73.03;;;43.33;;
39996;SDS011;25688;52.338;21.072;2024-02-28T11:03:31;77.60;;;46.55;;
39996;SDS011;25688;52.338;21.072;2024-02-28T11:05:57;78.43;;;45.80;;
39996;SDS011;25688;52.338;21.072;2024-02-28T11:08:24;80.40;;;46.53;;
39996;SDS011;25688;52.338;21.072;2024-02-28T11:10:56;86.03;;;47.47;;
39996;SDS011;25688;52.338;21.072;2024-02-28T11:13:24;82.43;;;47.83;;
39996;SDS011;25688;52.338;21.072;2024-02-28T11:15:51;82.32;;;47.72;;
39996;SDS011;25688;52.338;21.072;2024-02-28T11:18:17;82.82;;;47.83;;
39996;SDS011;25688;52.338;21.072;2024-02-28T11:20:44;81.88;;;47.88;;
39996;SDS011;25688;52.338;21.072;2024-02-28T11:23:12;83.88;;;46.88;;
39996;SDS011;25688;52.338;21.072;2024-02-28T11:25:40;85.53;;;45.05;;
39996;SDS011;25688;52.338;21.072;2024-02-28T11:28:06;86.85;;;46.50;;
39996;SDS011;25688;52.338;21.072;2024-02-28T11:30:32;82.15;;;47.33;;
39996;SDS011;25688;52.338;21.072;2024-02-28T11:32:58;84.28;;;47.60;;
39996;SDS011;25688;52.338;21.072;2024-02-28T11:35:26;96.35;;;49.72;;
39996;SDS011;25688;52.338;21.072;2024-02-28T11:37:53;96.78;;;51.63;;
39996;SDS011;25688;52.338;21.072;2024-02-28T11:40:25;100.93;;;51.42;;
39996;SDS011;25688;52.338;21.072;2024-02-28T11:42:51;101.10;;;50.35;;
39996;SDS011;25688;52.338;21.072;2024-02-28T11:45:18;108.15;;;56.67;;
39996;SDS011;25688;52.338;21.072;2024-02-28T11:47:44;116.20;;;61.63;;
39996;SDS011;25688;52.338;21.072;2024-02-28T11:50:10;125.28;;;68.70;;
39996;SDS011;25688;52.338;21.072;2024-02-28T11:52:36;130.80;;;66.30;;
39996;SDS011;25688;52.338;21.072;2024-02-28T11:55:02;127.65;;;63.75;;
39996;SDS011;25688;52.338;21.072;2024-02-28T11:57:29;127.80;;;66.63;;
39996;SDS011;25688;52.338;21.072;2024-02-28T12:00:01;142.98;;;65.15;;
39996;SDS011;25688;52.338;21.072;2024-02-28T12:02:31;121.95;;;62.47;;
39996;SDS011;25688;52.338;21.072;2024-02-28T12:05:03;125.25;;;61.20;;
39996;SDS011;25688;52.338;21.072;2024-02-28T12:07:30;120.25;;;64.30;;
39996;SDS011;25688;52.338;21.072;2024-02-28T12:09:57;125.20;;;61.40;;
39996;SDS011;25688;52.338;21.072;2024-02-28T12:12:23;123.15;;;62.20;;
39996;SDS011;25688;52.338;21.072;2024-02-28T12:14:50;119.70;;;63.42;;
39996;SDS011;25688;52.338;21.072;2024-02-28T12:17:16;127.60;;;62.60;;
39996;SDS011;25688;52.338;21.072;2024-02-28T12:19:42;125.10;;;64.13;;
39996;SDS011;25688;52.338;21.072;2024-02-28T12:22:08;127.50;;;62.72;;
39996;SDS011;25688;52.338;21.072;2024-02-28T12:24:34;121.55;;;60.92;;
39996;SDS011;25688;52.338;21.072;2024-02-28T12:27:00;121.90;;;55.83;;
39996;SDS011;25688;52.338;21.072;2024-02-28T12:29:25;122.50;;;59.70;;
39996;SDS011;25688;52.338;21.072;2024-02-28T12:31:51;120.90;;;57.60;;
39996;SDS011;25688;52.338;21.072;2024-02-28T12:34:17;132.93;;;64.40;;
39996;SDS011;25688;52.338;21.072;2024-02-28T12:36:43;126.72;;;61.78;;
39996;SDS011;25688;52.338;21.072;2024-02-28T12:39:09;118.25;;;58.25;;
39996;SDS011;25688;52.338;21.072;2024-02-28T12:41:37;114.88;;;58.50;;
39996;SDS011;25688;52.338;21.072;2024-02-28T12:44:06;119.05;;;59.65;;
39996;SDS011;25688;52.338;21.072;2024-02-28T12:46:33;118.80;;;59.10;;
39996;SDS011;25688;52.338;21.072;2024-02-28T12:48:59;112.32;;;54.70;;
39996;SDS011;25688;52.338;21.072;2024-02-28T12:51:58;116.53;;;57.25;;
39996;SDS011;25688;52.338;21.072;2024-02-28T12:54:17;119.13;;;58.10;;
39996;SDS011;25688;52.338;21.072;2024-02-28T12:56:45;113.25;;;58.45;;
39996;SDS011;25688;52.338;21.072;2024-02-28T12:59:11;116.63;;;55.83;;
39996;SDS011;25688;52.338;21.072;2024-02-28T13:01:38;124.40;;;57.83;;
39996;SDS011;25688;52.338;21.072;2024-02-28T13:04:03;116.20;;;54.90;;
39996;SDS011;25688;52.338;21.072;2024-02-28T13:06:29;117.80;;;55.88;;
39996;SDS011;25688;52.338;21.072;2024-02-28T13:08:55;112.70;;;54.55;;
39996;SDS011;25688;52.338;21.072;2024-02-28T13:11:22;113.97;;;54.03;;
39996;SDS011;25688;52.338;21.072;2024-02-28T13:13:49;113.07;;;53.80;;
39996;SDS011;25688;52.338;21.072;2024-02-28T13:16:16;103.72;;;49.95;;
39996;SDS011;25688;52.338;21.072;2024-02-28T13:18:43;103.07;;;50.10;;
39996;SDS011;25688;52.338;21.072;2024-02-28T13:21:09;100.25;;;49.63;;
39996;SDS011;25688;52.338;21.072;2024-02-28T13:23:35;102.03;;;47.30;;
39996;SDS011;25688;52.338;21.072;2024-02-28T13:26:02;97.80;;;48.38;;
39996;SDS011;25688;52.338;21.072;2024-02-28T13:28:32;104.38;;;47.45;;
39996;SDS011;25688;52.338;21.072;2024-02-28T13:31:01;88.10;;;43.10;;
39996;SDS011;25688;52.338;21.072;2024-02-28T13:33:31;96.90;;;45.13;;
39996;SDS011;25688;52.338;21.072;2024-02-28T13:35:56;89.30;;;42.70;;
39996;SDS011;25688;52.338;21.072;2024-02-28T13:38:22;89.45;;;43.55;;
39996;SDS011;25688;52.338;21.072;2024-02-28T13:40:48;87.18;;;42.53;;
39996;SDS011;25688;52.338;21.072;2024-02-28T13:43:15;94.00;;;43.80;;
39996;SDS011;25688;52.338;21.072;2024-02-28T13:45:46;88.03;;;41.20;;
39996;SDS011;25688;52.338;21.072;2024-02-28T13:48:17;82.57;;;40.30;;
39996;SDS011;25688;52.338;21.072;2024-02-28T13:50:46;85.53;;;41.95;;
39996;SDS011;25688;52.338;21.072;2024-02-28T13:53:14;85.72;;;40.58;;
39996;SDS011;25688;52.338;21.072;2024-02-28T13:55:41;82.63;;;39.42;;
39996;SDS011;25688;52.338;21.072;2024-02-28T13:58:08;82.80;;;40.03;;
39996;SDS011;25688;52.338;21.072;2024-02-28T14:00:36;85.93;;;41.58;;
39996;SDS011;25688;52.338;21.072;2024-02-28T14:03:05;86.32;;;39.60;;
39996;SDS011;25688;52.338;21.072;2024-02-28T14:05:31;92.65;;;40.05;;
39996;SDS011;25688;52.338;21.072;2024-02-28T14:07:58;86.22;;;41.60;;
39996;SDS011;25688;52.338;21.072;2024-02-28T14:10:24;87.82;;;39.33;;